createdAt,value
2023-05-16T00:02:19.206Z,100069.56
2023-05-16T00:04:51.127Z,100068.06
2023-05-16T00:07:20.589Z,100070.72
2023-05-16T00:09:49.548Z,100074.00
2023-05-16T00:12:27.777Z,100075.00
2023-05-16T00:15:01.147Z,100076.97
2023-05-16T00:17:30.544Z,100069.84
2023-05-16T00:20:03.266Z,100065.50
2023-05-16T00:22:32.225Z,100072.03
2023-05-16T00:25:04.199Z,100070.72
2023-05-16T00:27:33.237Z,100061.72
2023-05-16T00:30:02.942Z,100066.81
2023-05-16T00:32:32.234Z,100068.28
2023-05-16T00:35:01.305Z,100066.16
2023-05-16T00:37:30.459Z,100063.97
2023-05-16T00:39:59.602Z,100063.00
2023-05-16T00:42:28.881Z,100065.97
2023-05-16T00:45:00.532Z,100064.88
2023-05-16T00:47:29.658Z,100064.34
2023-05-16T00:49:59.181Z,100057.97
2023-05-16T00:52:28.244Z,100056.84
2023-05-16T00:54:57.237Z,100040.72
2023-05-16T00:57:26.848Z,100044.84
2023-05-16T00:59:55.911Z,100038.84
2023-05-16T01:02:24.990Z,100038.69
2023-05-16T01:04:57.129Z,100042.22
2023-05-16T01:07:26.310Z,100036.38
2023-05-16T01:09:55.383Z,100048.09
2023-05-16T01:12:44.474Z,100036.00
2023-05-16T01:15:48.505Z,100034.13
2023-05-16T01:18:22.852Z,100026.97
2023-05-16T01:20:53.630Z,100031.88
2023-05-16T01:23:22.895Z,100036.69
2023-05-16T01:26:10.232Z,100035.22
2023-05-16T01:28:39.214Z,100033.31
2023-05-16T01:31:08.368Z,100032.19
2023-05-16T01:33:38.145Z,100037.72
2023-05-16T01:36:29.181Z,100040.25
2023-05-16T01:39:20.187Z,100038.91
2023-05-16T01:42:10.471Z,100042.78
2023-05-16T01:44:48.350Z,100037.38
2023-05-16T01:47:20.071Z,100052.34
2023-05-16T01:50:07.395Z,100042.91
2023-05-16T01:53:04.147Z,100042.22
2023-05-16T01:55:47.456Z,100044.66
2023-05-16T01:58:21.762Z,100039.56
2023-05-16T02:00:51.026Z,100041.91
2023-05-16T02:03:26.336Z,100036.47
2023-05-16T02:05:55.990Z,100039.91
2023-05-16T02:08:28.369Z,100030.97
2023-05-16T02:10:58.260Z,100024.56
2023-05-16T02:13:30.835Z,100020.72
2023-05-16T02:16:00.572Z,100028.78
2023-05-16T02:18:36.260Z,100026.03
2023-05-16T02:21:06.582Z,100014.59
2023-05-16T02:23:36.248Z,100029.41
2023-05-16T02:26:06.052Z,100025.34
2023-05-16T02:28:38.522Z,100033.44
2023-05-16T02:31:09.079Z,100019.19
2023-05-16T02:33:38.850Z,100015.97
2023-05-16T02:36:08.667Z,100024.28
2023-05-16T02:38:38.228Z,100029.22
2023-05-16T02:41:07.907Z,100022.16
2023-05-16T02:43:37.761Z,100019.84
2023-05-16T02:46:21.938Z,100023.00
2023-05-16T02:48:52.841Z,100013.63
2023-05-16T02:51:28.263Z,100014.47
2023-05-16T02:54:07.130Z,100014.19
2023-05-16T02:56:37.442Z,100007.50
2023-05-16T02:59:10.598Z,100001.00
2023-05-16T03:01:40.405Z,100007.69
2023-05-16T03:04:10.212Z,99999.00
2023-05-16T03:06:46.199Z,100010.69
2023-05-16T03:09:18.940Z,100002.88
2023-05-16T03:11:48.977Z,99994.59
2023-05-16T03:14:18.690Z,99998.72
2023-05-16T03:16:48.652Z,100004.75
2023-05-16T03:19:18.525Z,99992.84
2023-05-16T03:21:48.422Z,99985.06
2023-05-16T03:24:18.315Z,99989.53
2023-05-16T03:26:52.252Z,99983.34
2023-05-16T03:29:28.658Z,99982.72
2023-05-16T03:31:58.451Z,99988.59
2023-05-16T03:34:28.076Z,99974.34
2023-05-16T03:36:58.012Z,99983.22
2023-05-16T03:39:27.705Z,99978.16
2023-05-16T03:41:58.711Z,99977.16
2023-05-16T03:44:28.411Z,99972.97
2023-05-16T03:46:58.294Z,99977.69
2023-05-16T03:49:32.229Z,99969.56
2023-05-16T03:52:01.980Z,99963.06
2023-05-16T03:54:31.659Z,99953.75
2023-05-16T03:57:01.354Z,99953.41
2023-05-16T03:59:31.262Z,99947.50
2023-05-16T04:02:00.957Z,99952.09
2023-05-16T04:04:30.822Z,99948.38
2023-05-16T04:07:08.145Z,99945.34
2023-05-16T04:09:37.841Z,99936.63
2023-05-16T04:12:10.791Z,99929.75
2023-05-16T04:14:40.900Z,99934.63
2023-05-16T04:17:11.162Z,99937.72
2023-05-16T04:19:40.935Z,99925.91
2023-05-16T04:22:10.574Z,99936.53
2023-05-16T04:24:40.239Z,99935.34
2023-05-16T04:27:14.209Z,99935.72
2023-05-16T04:29:44.112Z,99925.63
2023-05-16T04:32:19.114Z,99916.56
2023-05-16T04:34:50.067Z,99916.00
2023-05-16T04:37:20.097Z,99917.00
2023-05-16T04:39:49.710Z,99920.44
2023-05-16T04:42:19.503Z,99920.44
2023-05-16T04:44:49.464Z,99903.50
2023-05-16T04:47:19.328Z,99911.25
2023-05-16T04:49:59.354Z,99918.41
2023-05-16T04:52:29.079Z,99909.88
2023-05-16T04:55:00.943Z,99913.91
2023-05-16T04:57:30.894Z,99908.06
2023-05-16T05:00:00.654Z,99923.16
2023-05-16T05:02:30.395Z,99920.78
2023-05-16T05:05:00.238Z,99909.41
2023-05-16T05:07:30.739Z,99914.59
2023-05-16T05:10:00.404Z,99915.63
2023-05-16T05:12:30.548Z,99919.13
2023-05-16T05:15:00.171Z,99912.56
2023-05-16T05:17:31.279Z,99913.22
2023-05-16T05:20:03.218Z,99910.19
2023-05-16T05:22:33.178Z,99909.47
2023-05-16T05:25:03.419Z,99917.34
2023-05-16T05:27:33.162Z,99909.94
2023-05-16T05:30:02.856Z,99918.53
2023-05-16T05:32:32.669Z,99916.50
2023-05-16T05:35:02.568Z,99914.00
2023-05-16T05:37:32.750Z,99914.22
2023-05-16T05:40:05.835Z,99906.47
2023-05-16T05:42:38.629Z,99912.84
2023-05-16T05:45:11.713Z,99910.53
2023-05-16T05:47:49.177Z,99913.16
2023-05-16T05:50:19.157Z,99903.91
2023-05-16T05:52:48.844Z,99908.13
2023-05-16T05:55:18.708Z,99913.56
2023-05-16T05:57:54.195Z,99905.34
2023-05-16T06:00:29.433Z,99906.50
2023-05-16T06:03:10.070Z,99901.28
2023-05-16T06:05:43.228Z,99897.22
2023-05-16T06:08:14.264Z,99897.16
2023-05-16T06:10:49.975Z,99897.22
2023-05-16T06:13:22.804Z,99896.31
2023-05-16T06:16:01.217Z,99903.63
2023-05-16T06:18:31.507Z,99900.91
2023-05-16T06:21:01.199Z,99895.31
2023-05-16T06:23:30.953Z,99907.09
2023-05-16T06:26:00.555Z,99894.97
2023-05-16T06:28:33.280Z,99893.44
2023-05-16T06:31:03.012Z,99893.41
2023-05-16T06:33:32.798Z,99889.66
2023-05-16T06:36:03.567Z,99883.16
2023-05-16T06:38:33.352Z,99888.66
2023-05-16T06:41:03.061Z,99889.69
2023-05-16T06:43:35.528Z,99885.13
2023-05-16T06:46:07.527Z,99885.00
2023-05-16T06:48:43.041Z,99887.81
2023-05-16T06:51:18.126Z,99886.47
2023-05-16T06:53:50.729Z,99883.31
2023-05-16T06:56:19.872Z,99889.69
2023-05-16T06:58:49.255Z,99889.97
2023-05-16T07:01:23.659Z,99884.88
2023-05-16T07:03:52.855Z,99888.09
2023-05-16T07:06:27.503Z,99884.81
2023-05-16T07:08:56.995Z,99892.75
2023-05-16T07:11:26.148Z,99895.25
2023-05-16T07:13:58.358Z,99890.50
2023-05-16T07:16:30.006Z,99892.06
2023-05-16T07:18:59.363Z,99896.66
2023-05-16T07:21:28.472Z,99884.06
2023-05-16T07:24:00.541Z,99889.31
2023-05-16T07:26:32.383Z,99891.34
2023-05-16T07:29:01.678Z,99889.31
2023-05-16T07:31:30.734Z,99891.94
2023-05-16T07:33:59.903Z,99887.22
2023-05-16T07:36:29.135Z,99883.91
2023-05-16T07:38:58.228Z,99884.34
2023-05-16T07:41:27.928Z,99888.13
2023-05-16T07:43:56.964Z,99891.03
2023-05-16T07:46:26.183Z,99900.22
2023-05-16T07:48:55.260Z,99896.91
2023-05-16T07:51:26.257Z,99899.22
2023-05-16T07:53:55.348Z,99891.94
2023-05-16T07:56:27.970Z,99900.88
2023-05-16T07:58:57.659Z,99900.50
2023-05-16T08:01:26.731Z,99894.06
2023-05-16T08:03:55.977Z,99896.13
2023-05-16T08:06:27.923Z,99894.25
2023-05-16T08:08:56.960Z,99893.59
2023-05-16T08:11:28.923Z,99890.28
2023-05-16T08:13:58.039Z,99895.94
2023-05-16T08:16:27.266Z,99888.03
2023-05-16T08:18:56.902Z,99894.31
2023-05-16T08:21:26.101Z,99884.53
2023-05-16T08:23:55.259Z,99899.09
2023-05-16T08:26:27.064Z,99904.50
2023-05-16T08:28:56.125Z,99902.63
2023-05-16T08:31:25.245Z,99902.41
2023-05-16T08:33:54.470Z,99907.44
2023-05-16T08:36:23.554Z,99911.56
2023-05-16T08:38:59.026Z,99908.47
2023-05-16T08:41:28.160Z,99911.19
2023-05-16T08:43:57.232Z,99912.84
2023-05-16T08:46:26.487Z,99909.53
2023-05-16T08:48:59.233Z,99908.25
2023-05-16T08:51:29.465Z,99899.09
2023-05-16T08:54:08.910Z,99903.66
2023-05-16T08:56:38.053Z,99905.31
2023-05-16T08:59:07.275Z,99901.13
2023-05-16T09:01:36.523Z,99903.00
2023-05-16T09:04:06.254Z,99901.13
2023-05-16T09:06:35.334Z,99902.63
2023-05-16T09:09:09.677Z,99899.91
2023-05-16T09:11:38.687Z,99897.81
2023-05-16T09:14:07.839Z,99901.41
2023-05-16T09:16:39.713Z,99909.38
2023-05-16T09:19:08.846Z,99905.09
2023-05-16T09:21:38.032Z,99904.03
2023-05-16T09:24:10.278Z,99911.13
2023-05-16T09:26:40.219Z,99904.66
2023-05-16T09:29:15.461Z,99907.59
2023-05-16T09:31:47.726Z,99904.25
2023-05-16T09:34:17.141Z,99913.00
2023-05-16T09:36:46.539Z,99913.00
2023-05-16T09:39:17.262Z,99913.81
2023-05-16T09:41:46.261Z,99907.78
2023-05-16T09:46:46.708Z,99914.03
2023-05-16T09:49:16.216Z,99912.38
2023-05-16T09:51:45.445Z,99916.47
2023-05-16T09:54:17.670Z,99916.47
2023-05-16T09:57:01.410Z,99916.47
2023-05-16T09:59:32.178Z,99913.50
2023-05-16T10:02:02.016Z,99925.81
2023-05-16T10:04:31.198Z,99920.19
2023-05-16T10:07:00.492Z,99915.63
2023-05-16T10:09:29.635Z,99918.91
2023-05-16T10:11:58.702Z,99931.41
2023-05-16T10:14:28.156Z,99917.88
2023-05-16T10:17:00.265Z,99924.53
2023-05-16T10:19:29.372Z,99930.13
2023-05-16T10:22:01.193Z,99931.81
2023-05-16T10:24:31.929Z,99934.69
2023-05-16T10:27:08.291Z,99934.69
2023-05-16T10:29:53.617Z,99939.25
2023-05-16T10:32:27.137Z,99940.69
2023-05-16T10:34:59.892Z,99943.75
2023-05-16T10:37:29.065Z,99943.75
2023-05-16T10:39:58.225Z,99951.66
2023-05-16T10:42:30.342Z,99941.25
2023-05-16T10:45:13.814Z,99952.84
2023-05-16T10:47:42.883Z,99957.41
2023-05-16T10:50:12.323Z,99957.78
2023-05-16T10:52:43.750Z,99954.03
2023-05-16T10:55:12.799Z,99950.72
2023-05-16T10:57:41.885Z,99957.97
2023-05-16T11:00:11.947Z,99964.31
2023-05-16T11:02:44.843Z,99972.72
2023-05-16T11:05:20.212Z,99973.03
2023-05-16T11:07:49.293Z,99983.03
2023-05-16T11:10:18.418Z,99979.13
2023-05-16T11:12:53.779Z,99980.53
2023-05-16T11:15:29.895Z,99981.00
2023-05-16T11:18:08.480Z,99980.31
2023-05-16T11:20:41.292Z,99996.53
2023-05-16T11:23:19.282Z,99998.41
2023-05-16T11:25:48.838Z,100004.66
2023-05-16T11:28:20.946Z,100013.59
2023-05-16T11:30:54.250Z,100028.59
2023-05-16T11:33:26.903Z,100030.47
2023-05-16T11:36:16.003Z,100044.56
2023-05-16T11:38:45.980Z,100046.97
2023-05-16T11:41:17.084Z,100047.06
2023-05-16T11:43:46.888Z,100065.31
2023-05-16T11:46:19.112Z,100064.84
2023-05-16T11:48:48.831Z,100071.03
2023-05-16T11:51:20.518Z,100082.66
2023-05-16T11:53:51.422Z,100090.50
2023-05-16T11:56:20.673Z,100105.31
2023-05-16T11:58:50.108Z,100108.94
2023-05-16T12:01:19.325Z,100105.66
2023-05-16T12:03:56.380Z,100102.50
2023-05-16T12:06:25.753Z,100099.88
2023-05-16T12:08:58.006Z,100100.91
2023-05-16T12:11:27.466Z,100104.72
2023-05-16T12:13:59.437Z,100109.75
2023-05-16T12:16:29.129Z,100120.91
2023-05-16T12:19:07.409Z,100125.50
2023-05-16T12:21:37.087Z,100133.97
2023-05-16T12:24:09.141Z,100148.34
2023-05-16T12:26:38.964Z,100154.13
2023-05-16T12:29:08.385Z,100165.84
2023-05-16T12:31:41.666Z,100171.31
2023-05-16T12:34:18.069Z,100171.78
2023-05-16T12:36:47.467Z,100174.84
2023-05-16T12:39:19.804Z,100176.84
2023-05-16T12:41:49.880Z,100176.03
2023-05-16T12:44:21.052Z,100169.00
2023-05-16T12:46:53.461Z,100177.03
2023-05-16T12:49:23.814Z,100178.69
2023-05-16T12:51:56.677Z,100182.13
2023-05-16T12:54:25.806Z,100184.81
2023-05-16T12:56:57.469Z,100189.19
2023-05-16T12:59:39.740Z,100193.41
2023-05-16T13:02:09.048Z,100192.25
2023-05-16T13:04:38.600Z,100192.25
2023-05-16T13:07:07.622Z,100193.81
2023-05-16T13:09:36.875Z,100181.84
2023-05-16T13:12:06.222Z,100194.63
2023-05-16T13:14:35.318Z,100195.63
2023-05-16T13:17:07.475Z,100200.88
2023-05-16T13:19:36.587Z,100204.06
2023-05-16T13:22:05.725Z,100198.03
2023-05-16T13:24:37.775Z,100205.78
2023-05-16T13:27:09.945Z,100204.47
2023-05-16T13:29:39.043Z,100195.03
2023-05-16T13:32:09.187Z,100203.81
2023-05-16T13:34:38.453Z,100203.50
2023-05-16T13:37:07.588Z,100198.13
2023-05-16T13:39:36.792Z,100204.53
2023-05-16T13:42:06.726Z,100209.56
2023-05-16T13:44:35.935Z,100220.03
2023-05-16T13:47:05.524Z,100218.16
2023-05-16T13:49:35.043Z,100215.81
2023-05-16T13:52:07.226Z,100212.28
2023-05-16T13:54:36.411Z,100217.50
2023-05-16T13:57:06.249Z,100221.72
2023-05-16T13:59:59.211Z,100220.88
2023-05-16T14:02:26.752Z,100228.81
2023-05-16T14:04:56.091Z,100229.97
2023-05-16T14:07:25.154Z,100225.94
2023-05-16T14:09:54.626Z,100231.81
2023-05-16T14:12:23.744Z,100242.94
2023-05-16T14:14:52.806Z,100247.69
2023-05-16T14:17:24.598Z,100237.09
2023-05-16T14:19:54.181Z,100239.06
2023-05-16T14:22:23.213Z,100244.81
2023-05-16T14:24:55.835Z,100244.31
2023-05-16T14:27:24.904Z,100250.06
2023-05-16T14:29:57.398Z,100253.75
2023-05-16T14:32:29.705Z,100260.50
2023-05-16T14:35:01.755Z,100259.84
2023-05-16T14:37:33.881Z,100268.41
2023-05-16T14:40:04.926Z,100266.09
2023-05-16T14:42:34.289Z,100251.09
2023-05-16T14:45:06.257Z,100250.56
2023-05-16T14:47:38.048Z,100247.38
2023-05-16T14:50:07.587Z,100239.28
2023-05-16T14:52:40.345Z,100231.88
2023-05-16T14:55:09.465Z,100240.13
2023-05-16T14:57:38.573Z,100228.16
2023-05-16T15:00:09.134Z,100249.41
2023-05-16T15:02:38.160Z,100237.78
2023-05-16T15:05:08.378Z,100236.41
2023-05-16T15:07:39.512Z,100244.31
2023-05-16T15:10:09.026Z,100250.03
2023-05-16T15:12:38.342Z,100243.81
2023-05-16T15:15:07.641Z,100251.91
2023-05-16T15:17:36.822Z,100264.88
2023-05-16T15:20:07.032Z,100259.66
2023-05-16T15:22:36.192Z,100263.03
2023-05-16T15:25:07.275Z,100263.38
2023-05-16T15:27:36.296Z,100258.00
2023-05-16T15:30:07.935Z,100261.53
2023-05-16T15:32:37.037Z,100262.19
2023-05-16T15:35:06.800Z,100259.34
2023-05-16T15:37:36.517Z,100257.50
2023-05-16T15:40:09.895Z,100258.47
2023-05-16T15:42:42.181Z,100257.16
2023-05-16T15:45:11.913Z,100265.25
2023-05-16T15:47:41.025Z,100262.88
2023-05-16T15:50:12.985Z,100258.84
2023-05-16T15:52:43.076Z,100249.72
2023-05-16T15:55:16.186Z,100254.81
2023-05-16T15:57:48.057Z,100253.78
2023-05-16T16:00:17.474Z,100259.50
2023-05-16T16:02:47.682Z,100257.97
2023-05-16T16:05:16.995Z,100250.25
2023-05-16T16:07:46.136Z,100240.81
2023-05-16T16:10:19.034Z,100245.38
2023-05-16T16:13:00.084Z,100242.66
2023-05-16T16:15:33.347Z,100240.00
2023-05-16T16:18:08.775Z,100241.31
2023-05-16T16:20:38.134Z,100246.38
2023-05-16T16:23:07.242Z,100246.69
2023-05-16T16:25:36.429Z,100251.09
2023-05-16T16:28:05.732Z,100241.78
2023-05-16T16:30:37.536Z,100244.66
2023-05-16T16:33:07.687Z,100238.13
2023-05-16T16:35:37.006Z,100238.59
2023-05-16T16:38:12.106Z,100235.06
2023-05-16T16:40:41.475Z,100236.59
2023-05-16T16:43:10.686Z,100237.75
2023-05-16T16:45:39.694Z,100223.44
2023-05-16T16:48:15.397Z,100219.06
2023-05-16T16:50:45.018Z,100223.44
2023-05-16T16:53:14.357Z,100230.69
2023-05-16T16:55:46.830Z,100233.56
2023-05-16T16:58:18.671Z,100246.53
2023-05-16T17:00:49.940Z,100242.13
2023-05-16T17:03:19.184Z,100235.56
2023-05-16T17:06:04.980Z,100243.00
2023-05-16T17:08:34.179Z,100247.50
2023-05-16T17:11:06.689Z,100243.00
2023-05-16T17:13:38.884Z,100246.84
2023-05-16T17:16:08.311Z,100249.38
2023-05-16T17:18:38.726Z,100250.06
2023-05-16T17:21:08.067Z,100252.91
2023-05-16T17:23:37.077Z,100252.06
2023-05-16T17:26:06.646Z,100265.03
2023-05-16T17:28:35.806Z,100271.94
2023-05-16T17:31:05.596Z,100265.53
2023-05-16T17:33:34.670Z,100263.69
2023-05-16T17:36:04.115Z,100265.22
2023-05-16T17:38:35.730Z,100261.16
2023-05-16T17:41:04.785Z,100263.19
2023-05-16T17:43:33.966Z,100266.03
2023-05-16T17:46:03.585Z,100274.31
2023-05-16T17:48:35.666Z,100280.34
2023-05-16T17:51:07.550Z,100277.50
2023-05-16T17:53:37.998Z,100284.91
2023-05-16T17:56:07.256Z,100280.34
2023-05-16T17:58:36.379Z,100282.22
2023-05-16T18:01:09.458Z,100282.38
2023-05-16T18:03:38.564Z,100287.09
2023-05-16T18:06:08.606Z,100279.38
2023-05-16T18:08:37.729Z,100278.00
2023-05-16T18:11:06.910Z,100275.66
2023-05-16T18:13:38.677Z,100270.25
2023-05-16T18:16:07.972Z,100271.59
2023-05-16T18:18:39.185Z,100276.66
2023-05-16T18:21:08.371Z,100290.13
2023-05-16T18:23:38.028Z,100284.25
2023-05-16T18:26:10.717Z,100280.34
2023-05-16T18:28:43.401Z,100269.44
2023-05-16T18:31:12.710Z,100275.66
2023-05-16T18:33:41.728Z,100267.22
2023-05-16T18:36:10.765Z,100267.72
2023-05-16T18:38:41.636Z,100268.91
2023-05-16T18:41:10.734Z,100272.44
2023-05-16T18:43:39.793Z,100281.19
2023-05-16T18:46:18.089Z,100268.75
2023-05-16T18:48:47.277Z,100283.22
2023-05-16T18:51:16.326Z,100281.69
2023-05-16T18:53:48.692Z,100278.84
2023-05-16T18:56:17.788Z,100272.13
2023-05-16T18:58:47.109Z,100274.63
2023-05-16T19:01:16.242Z,100275.47
2023-05-16T19:03:45.366Z,100276.50
2023-05-16T19:06:14.671Z,100284.06
2023-05-16T19:08:48.193Z,100290.13
2023-05-16T19:11:18.364Z,100292.84
2023-05-16T19:13:50.958Z,100296.50
2023-05-16T19:16:20.141Z,100293.81
2023-05-16T19:18:49.323Z,100293.81
2023-05-16T19:21:18.545Z,100291.13
2023-05-16T19:23:47.837Z,100289.13
2023-05-16T19:26:16.879Z,100297.19
2023-05-16T19:29:07.153Z,100292.47
2023-05-16T19:31:36.389Z,100297.53
2023-05-16T19:34:05.596Z,100295.66
2023-05-16T19:36:46.455Z,100291.44
2023-05-16T19:39:18.694Z,100295.84
2023-05-16T19:41:52.210Z,100305.28
2023-05-16T19:44:21.617Z,100299.19
2023-05-16T19:46:50.614Z,100305.78
2023-05-16T19:49:20.335Z,100319.25
2023-05-16T19:51:49.439Z,100315.88
2023-05-16T19:54:18.688Z,100328.50
2023-05-16T19:56:47.794Z,100323.63
2023-05-16T19:59:16.974Z,100333.50
2023-05-16T20:01:46.136Z,100329.84
2023-05-16T20:04:15.294Z,100326.97
2023-05-16T20:06:44.367Z,100313.31
2023-05-16T20:09:13.462Z,100315.88
2023-05-16T20:11:42.645Z,100309.97
2023-05-16T20:14:11.661Z,100321.06
2023-05-16T20:16:40.739Z,100318.06
2023-05-16T20:19:12.620Z,100312.66
2023-05-16T20:21:44.687Z,100316.53
2023-05-16T20:24:13.759Z,100318.19
2023-05-16T20:26:43.379Z,100308.09
2023-05-16T20:29:12.779Z,100311.00
2023-05-16T20:31:44.274Z,100315.03
2023-05-16T20:34:13.567Z,100314.16
2023-05-16T20:36:45.742Z,100314.34
2023-05-16T20:39:17.429Z,100323.44
2023-05-16T20:41:46.443Z,100325.28
2023-05-16T20:44:18.611Z,100320.41
2023-05-16T20:46:48.117Z,100317.34
2023-05-16T20:49:17.409Z,100327.16
2023-05-16T20:51:46.438Z,100324.59
2023-05-16T20:54:15.516Z,100328.09
2023-05-16T20:56:44.700Z,100335.94
2023-05-16T20:59:13.775Z,100334.59
2023-05-16T21:01:42.831Z,100333.69
2023-05-16T21:04:15.069Z,100325.53
2023-05-16T21:06:44.115Z,100327.34
2023-05-16T21:09:13.503Z,100331.84
2023-05-16T21:11:42.628Z,100329.13
2023-05-16T21:14:14.894Z,100332.97
2023-05-16T21:16:43.925Z,100343.63
2023-05-16T21:19:13.542Z,100346.91
2023-05-16T21:21:42.738Z,100356.59
2023-05-16T21:24:20.855Z,100349.59
2023-05-16T21:26:50.132Z,100344.88
2023-05-16T21:29:19.165Z,100344.88
2023-05-16T21:31:51.696Z,100335.69
2023-05-16T21:34:23.750Z,100337.47
2023-05-16T21:36:52.880Z,100338.97
2023-05-16T21:39:22.284Z,100341.19
2023-05-16T21:41:53.706Z,100340.56
2023-05-16T21:44:23.022Z,100344.09
2023-05-16T21:46:52.144Z,100348.50
2023-05-16T21:49:28.166Z,100355.25
2023-05-16T21:52:07.317Z,100353.72
2023-05-16T21:54:36.884Z,100348.16
2023-05-16T21:57:08.656Z,100358.44
2023-05-16T21:59:37.970Z,100353.25
2023-05-16T22:02:10.262Z,100354.47
2023-05-16T22:04:39.406Z,100349.75
2023-05-16T22:07:10.949Z,100355.19
2023-05-16T22:09:40.095Z,100355.50
2023-05-16T22:12:16.541Z,100348.94
2023-05-16T22:14:45.729Z,100360.91
2023-05-16T22:17:17.563Z,100356.16
2023-05-16T22:19:48.381Z,100359.00
2023-05-16T22:22:19.983Z,100356.63
2023-05-16T22:24:49.226Z,100357.31
2023-05-16T22:27:28.165Z,100361.19
2023-05-16T22:29:57.278Z,100361.56
2023-05-16T22:32:26.539Z,100356.66
2023-05-16T22:35:02.014Z,100358.53
2023-05-16T22:37:34.100Z,100345.16
2023-05-16T22:40:03.153Z,100346.38
2023-05-16T22:42:33.190Z,100346.84
2023-05-16T22:45:02.567Z,100343.53
2023-05-16T22:47:37.137Z,100343.78
2023-05-16T22:52:54.025Z,100324.34
2023-05-16T22:55:23.065Z,100323.03
2023-05-16T22:57:54.376Z,100327.06
2023-05-16T23:00:27.349Z,100321.28
2023-05-16T23:03:02.896Z,100316.09
2023-05-16T23:05:45.426Z,100308.84
2023-05-16T23:08:20.320Z,100306.28
2023-05-16T23:11:00.073Z,100316.06
2023-05-16T23:13:29.212Z,100317.56
2023-05-16T23:16:01.276Z,100305.94
2023-05-16T23:18:33.342Z,100316.53
2023-05-16T23:21:12.968Z,100309.84
2023-05-16T23:23:48.393Z,100319.50
2023-05-16T23:26:24.155Z,100310.97
2023-05-16T23:28:56.916Z,100312.06
2023-05-16T23:31:26.956Z,100312.00
2023-05-16T23:33:56.808Z,100308.03
2023-05-16T23:36:38.628Z,100305.41
2023-05-16T23:39:09.771Z,100316.75
2023-05-16T23:44:30.221Z,100322.38
2023-05-16T23:47:05.518Z,100310.44
2023-05-16T23:49:35.558Z,100314.84
2023-05-16T23:52:08.801Z,100327.03
2023-05-16T23:54:38.468Z,100319.72
2023-05-16T23:57:11.107Z,100325.41
2023-05-16T23:59:43.778Z,100319.31
